createdAt,value
2023-06-27T00:00:35.382Z,425.00
2023-06-27T00:01:35.419Z,425.00
2023-06-27T00:02:35.421Z,425.00
2023-06-27T00:03:35.528Z,423.00
2023-06-27T00:04:35.499Z,421.00
2023-06-27T00:05:35.485Z,422.00
2023-06-27T00:06:35.538Z,421.00
2023-06-27T00:07:36.366Z,421.00
2023-06-27T00:08:35.574Z,422.00
2023-06-27T00:09:35.576Z,425.00
2023-06-27T00:10:35.650Z,429.00
2023-06-27T00:11:35.645Z,427.00
2023-06-27T00:12:35.689Z,427.00
2023-06-27T00:13:35.684Z,425.00
2023-06-27T00:14:35.707Z,426.00
2023-06-27T00:15:35.729Z,428.00
2023-06-27T00:16:35.784Z,428.00
2023-06-27T00:17:35.861Z,430.00
2023-06-27T00:18:35.943Z,431.00
2023-06-27T00:19:35.901Z,432.00
2023-06-27T00:20:35.897Z,432.00
2023-06-27T00:21:35.924Z,433.00
2023-06-27T00:22:35.962Z,429.00
2023-06-27T00:23:35.966Z,429.00
2023-06-27T00:24:36.006Z,429.00
2023-06-27T00:25:36.048Z,432.00
2023-06-27T00:26:36.074Z,433.00
2023-06-27T00:27:36.101Z,433.00
2023-06-27T00:28:36.111Z,433.00
2023-06-27T00:29:36.210Z,436.00
2023-06-27T00:30:36.179Z,436.00
2023-06-27T00:31:36.191Z,436.00
2023-06-27T00:32:36.276Z,437.00
2023-06-27T00:33:36.267Z,435.00
2023-06-27T00:34:36.287Z,432.00
2023-06-27T00:35:36.285Z,430.00
2023-06-27T00:36:36.328Z,427.00
2023-06-27T00:37:36.339Z,429.00
2023-06-27T00:38:36.381Z,428.00
2023-06-27T00:39:36.363Z,429.00
2023-06-27T00:40:36.522Z,429.00
2023-06-27T00:41:36.455Z,427.00
2023-06-27T00:42:36.452Z,428.00
2023-06-27T00:43:36.493Z,430.00
2023-06-27T00:44:36.507Z,430.00
2023-06-27T00:45:36.534Z,430.00
2023-06-27T00:46:36.559Z,431.00
2023-06-27T00:47:36.629Z,430.00
2023-06-27T00:48:36.600Z,431.00
2023-06-27T00:49:36.655Z,432.00
2023-06-27T00:50:36.655Z,431.00
2023-06-27T00:51:36.700Z,434.00
2023-06-27T00:52:36.715Z,434.00
2023-06-27T00:53:36.772Z,433.00
2023-06-27T00:54:36.782Z,432.00
2023-06-27T00:55:36.884Z,432.00
2023-06-27T00:56:36.826Z,431.00
2023-06-27T00:57:36.870Z,429.00
2023-06-27T00:58:36.872Z,429.00
2023-06-27T00:59:36.880Z,430.00
2023-06-27T01:00:36.909Z,432.00
2023-06-27T01:01:36.969Z,433.00
2023-06-27T01:02:37.062Z,435.00
2023-06-27T01:03:37.060Z,435.00
2023-06-27T01:04:37.027Z,434.00
2023-06-27T01:05:37.162Z,432.00
2023-06-27T01:06:37.082Z,431.00
2023-06-27T01:07:37.120Z,431.00
2023-06-27T01:08:37.181Z,429.00
2023-06-27T01:09:37.178Z,429.00
2023-06-27T01:10:37.260Z,429.00
2023-06-27T01:11:37.231Z,430.00
2023-06-27T01:12:37.240Z,432.00
2023-06-27T01:13:37.261Z,433.00
2023-06-27T01:14:37.268Z,438.00
2023-06-27T01:15:37.592Z,438.00
2023-06-27T01:16:37.354Z,435.00
2023-06-27T01:17:37.440Z,434.00
2023-06-27T01:18:37.429Z,433.00
2023-06-27T01:19:37.472Z,432.00
2023-06-27T01:20:37.453Z,431.00
2023-06-27T01:21:37.569Z,432.00
2023-06-27T01:22:37.490Z,434.00
2023-06-27T01:23:37.530Z,434.00
2023-06-27T01:24:37.557Z,434.00
2023-06-27T01:25:37.654Z,434.00
2023-06-27T01:26:37.617Z,434.00
2023-06-27T01:27:37.630Z,436.00
2023-06-27T01:28:37.733Z,434.00
2023-06-27T01:29:37.664Z,435.00
2023-06-27T01:30:37.728Z,435.00
2023-06-27T01:31:37.776Z,432.00
2023-06-27T01:32:37.753Z,432.00
2023-06-27T01:33:37.801Z,432.00
2023-06-27T01:34:37.845Z,434.00
2023-06-27T01:35:38.093Z,435.00
2023-06-27T01:36:38.111Z,434.00
2023-06-27T01:37:37.977Z,434.00
2023-06-27T01:38:37.933Z,434.00
2023-06-27T01:39:37.971Z,438.00
2023-06-27T01:40:37.987Z,438.00
2023-06-27T01:41:38.015Z,439.00
2023-06-27T01:42:38.022Z,438.00
2023-06-27T01:43:38.028Z,437.00
2023-06-27T01:44:38.068Z,436.00
2023-06-27T01:45:38.369Z,438.00
2023-06-27T01:46:38.131Z,437.00
2023-06-27T01:47:38.209Z,437.00
2023-06-27T01:48:38.139Z,437.00
2023-06-27T01:49:38.183Z,434.00
2023-06-27T01:50:38.211Z,436.00
2023-06-27T01:51:38.237Z,435.00
2023-06-27T01:52:38.244Z,436.00
2023-06-27T01:53:38.292Z,435.00
2023-06-27T01:54:38.311Z,435.00
2023-06-27T01:55:38.667Z,434.00
2023-06-27T01:56:38.316Z,433.00
2023-06-27T01:57:38.371Z,433.00
2023-06-27T01:58:38.365Z,434.00
2023-06-27T01:59:38.393Z,437.00
2023-06-27T02:00:38.398Z,436.00
2023-06-27T02:01:38.490Z,433.00
2023-06-27T02:02:38.545Z,432.00
2023-06-27T02:03:38.545Z,431.00
2023-06-27T02:04:38.531Z,430.00
2023-06-27T02:05:38.879Z,431.00
2023-06-27T02:06:38.587Z,431.00
2023-06-27T02:07:38.597Z,429.00
2023-06-27T02:08:38.637Z,430.00
2023-06-27T02:09:38.647Z,432.00
2023-06-27T02:10:38.637Z,433.00
2023-06-27T02:11:38.709Z,437.00
2023-06-27T02:12:38.692Z,438.00
2023-06-27T02:13:38.749Z,435.00
2023-06-27T02:14:38.780Z,437.00
2023-06-27T02:15:38.964Z,435.00
2023-06-27T02:16:38.808Z,435.00
2023-06-27T02:17:38.892Z,436.00
2023-06-27T02:18:38.873Z,438.00
2023-06-27T02:19:38.897Z,440.00
2023-06-27T02:20:38.936Z,441.00
2023-06-27T02:21:38.938Z,441.00
2023-06-27T02:22:38.967Z,441.00
2023-06-27T02:23:39.034Z,441.00
2023-06-27T02:24:39.068Z,445.00
2023-06-27T02:25:39.445Z,446.00
2023-06-27T02:26:39.101Z,448.00
2023-06-27T02:27:39.116Z,448.00
2023-06-27T02:28:39.186Z,449.00
2023-06-27T02:29:39.207Z,449.00
2023-06-27T02:30:39.431Z,446.00
2023-06-27T02:31:39.266Z,445.00
2023-06-27T02:32:39.344Z,443.00
2023-06-27T02:33:39.300Z,440.00
2023-06-27T02:34:39.352Z,441.00
2023-06-27T02:35:39.681Z,439.00
2023-06-27T02:36:39.410Z,439.00
2023-06-27T02:37:39.439Z,438.00
2023-06-27T02:38:39.421Z,439.00
2023-06-27T02:39:39.488Z,441.00
2023-06-27T02:40:39.501Z,438.00
2023-06-27T02:41:39.497Z,438.00
2023-06-27T02:42:39.508Z,437.00
2023-06-27T02:43:39.579Z,436.00
2023-06-27T02:44:39.607Z,435.00
2023-06-27T02:45:39.850Z,436.00
2023-06-27T02:46:39.646Z,436.00
2023-06-27T02:47:39.711Z,439.00
2023-06-27T02:48:39.680Z,438.00
2023-06-27T02:49:39.722Z,438.00
2023-06-27T02:50:39.729Z,438.00
2023-06-27T02:51:39.786Z,438.00
2023-06-27T02:52:39.795Z,438.00
2023-06-27T02:53:39.898Z,440.00
2023-06-27T02:54:39.902Z,439.00
2023-06-27T02:55:40.213Z,437.00
2023-06-27T02:56:39.927Z,435.00
2023-06-27T02:57:39.960Z,432.00
2023-06-27T02:58:39.978Z,432.00
2023-06-27T02:59:40.005Z,434.00
2023-06-27T03:00:40.034Z,434.00
2023-06-27T03:01:40.091Z,436.00
2023-06-27T03:02:40.245Z,440.00
2023-06-27T03:03:40.187Z,440.00
2023-06-27T03:04:40.299Z,438.00
2023-06-27T03:05:40.442Z,437.00
2023-06-27T03:06:40.217Z,434.00
2023-06-27T03:07:40.241Z,434.00
2023-06-27T03:08:40.284Z,432.00
2023-06-27T03:09:40.331Z,434.00
2023-06-27T03:10:40.332Z,435.00
2023-06-27T03:11:40.356Z,434.00
2023-06-27T03:12:40.373Z,434.00
2023-06-27T03:13:40.412Z,436.00
2023-06-27T03:14:40.445Z,437.00
2023-06-27T03:15:40.652Z,436.00
2023-06-27T03:16:40.508Z,438.00
2023-06-27T03:17:42.060Z,436.00
2023-06-27T03:18:40.545Z,435.00
2023-06-27T03:19:45.172Z,436.00
2023-06-27T03:20:41.591Z,434.00
2023-06-27T03:21:40.569Z,434.00
2023-06-27T03:22:40.573Z,437.00
2023-06-27T03:23:40.546Z,437.00
2023-06-27T03:24:40.546Z,435.00
2023-06-27T03:25:40.736Z,435.00
2023-06-27T03:26:40.529Z,437.00
2023-06-27T03:27:40.551Z,438.00
2023-06-27T03:28:40.533Z,438.00
2023-06-27T03:29:40.483Z,438.00
2023-06-27T03:30:40.546Z,438.00
2023-06-27T03:31:40.540Z,438.00
2023-06-27T03:32:40.561Z,436.00
2023-06-27T03:33:40.471Z,436.00
2023-06-27T03:34:40.499Z,437.00
2023-06-27T03:35:40.952Z,437.00
2023-06-27T03:36:40.625Z,436.00
2023-06-27T03:37:40.625Z,437.00
2023-06-27T03:38:40.654Z,438.00
2023-06-27T03:39:40.680Z,436.00
2023-06-27T03:40:40.701Z,436.00
2023-06-27T03:41:40.742Z,437.00
2023-06-27T03:42:40.763Z,438.00
2023-06-27T03:43:40.830Z,437.00
2023-06-27T03:44:40.822Z,439.00
2023-06-27T03:45:41.203Z,437.00
2023-06-27T03:46:40.883Z,440.00
2023-06-27T03:47:40.992Z,443.00
2023-06-27T03:48:40.931Z,444.00
2023-06-27T03:49:40.958Z,442.00
2023-06-27T03:50:41.003Z,443.00
2023-06-27T03:51:41.026Z,443.00
2023-06-27T03:52:41.028Z,440.00
2023-06-27T03:53:41.060Z,440.00
2023-06-27T03:54:41.080Z,439.00
2023-06-27T03:55:41.340Z,440.00
2023-06-27T03:56:41.164Z,442.00
2023-06-27T03:57:41.175Z,443.00
2023-06-27T03:58:41.174Z,442.00
2023-06-27T03:59:41.228Z,441.00
2023-06-27T04:00:41.256Z,440.00
2023-06-27T04:01:41.276Z,441.00
2023-06-27T04:02:41.365Z,444.00
2023-06-27T04:03:41.460Z,443.00
2023-06-27T04:04:41.580Z,447.00
2023-06-27T04:05:41.628Z,449.00
2023-06-27T04:06:41.376Z,447.00
2023-06-27T04:07:41.435Z,444.00
2023-06-27T04:08:41.446Z,445.00
2023-06-27T04:09:41.451Z,443.00
2023-06-27T04:10:41.505Z,444.00
2023-06-27T04:11:41.506Z,445.00
2023-06-27T04:12:41.548Z,444.00
2023-06-27T04:13:41.549Z,445.00
2023-06-27T04:14:41.582Z,443.00
2023-06-27T04:15:42.065Z,443.00
2023-06-27T04:16:41.696Z,443.00
2023-06-27T04:17:41.767Z,443.00
2023-06-27T04:18:41.696Z,441.00
2023-06-27T04:19:41.713Z,440.00
2023-06-27T04:20:41.744Z,436.00
2023-06-27T04:21:41.784Z,435.00
2023-06-27T04:22:41.777Z,434.00
2023-06-27T04:23:41.827Z,435.00
2023-06-27T04:24:41.835Z,435.00
2023-06-27T04:25:42.175Z,436.00
2023-06-27T04:26:41.917Z,435.00
2023-06-27T04:27:41.920Z,433.00
2023-06-27T04:28:41.953Z,435.00
2023-06-27T04:29:41.972Z,434.00
2023-06-27T04:30:42.046Z,436.00
2023-06-27T04:31:42.101Z,435.00
2023-06-27T04:32:42.100Z,436.00
2023-06-27T04:33:42.130Z,435.00
2023-06-27T04:34:42.131Z,435.00
2023-06-27T04:35:42.456Z,437.00
2023-06-27T04:36:42.364Z,437.00
2023-06-27T04:37:42.213Z,438.00
2023-06-27T04:38:42.223Z,436.00
2023-06-27T04:39:42.286Z,434.00
2023-06-27T04:40:42.273Z,434.00
2023-06-27T04:41:42.381Z,432.00
2023-06-27T04:42:42.327Z,431.00
2023-06-27T04:43:42.363Z,428.00
2023-06-27T04:44:42.390Z,428.00
2023-06-27T04:45:42.684Z,429.00
2023-06-27T04:46:42.473Z,429.00
2023-06-27T04:47:42.505Z,431.00
2023-06-27T04:48:42.513Z,432.00
2023-06-27T04:49:42.514Z,431.00
2023-06-27T04:50:42.553Z,428.00
2023-06-27T04:51:42.921Z,429.00
2023-06-27T04:52:42.717Z,431.00
2023-06-27T04:53:42.670Z,432.00
2023-06-27T04:54:42.650Z,434.00
2023-06-27T04:55:42.939Z,434.00
2023-06-27T04:56:42.720Z,435.00
2023-06-27T04:57:42.760Z,435.00
2023-06-27T04:58:42.765Z,435.00
2023-06-27T04:59:42.829Z,439.00
2023-06-27T05:00:42.897Z,437.00
2023-06-27T05:01:50.416Z,438.00
2023-06-27T05:02:49.763Z,435.00
2023-06-27T05:03:43.917Z,435.00
2023-06-27T05:04:42.909Z,436.00
2023-06-27T05:05:43.161Z,435.00
2023-06-27T05:06:42.915Z,433.00
2023-06-27T05:07:42.938Z,434.00
2023-06-27T05:08:42.938Z,435.00
2023-06-27T05:09:42.937Z,434.00
2023-06-27T05:10:42.884Z,436.00
2023-06-27T05:11:42.909Z,434.00
2023-06-27T05:12:42.886Z,433.00
2023-06-27T05:13:42.905Z,436.00
2023-06-27T05:14:42.898Z,438.00
2023-06-27T05:15:43.369Z,440.00
2023-06-27T05:16:42.974Z,443.00
2023-06-27T05:17:43.013Z,443.00
2023-06-27T05:18:43.029Z,441.00
2023-06-27T05:19:43.049Z,439.00
2023-06-27T05:20:43.048Z,438.00
2023-06-27T05:21:43.130Z,437.00
2023-06-27T05:22:43.131Z,435.00
2023-06-27T05:23:43.154Z,438.00
2023-06-27T05:24:43.179Z,436.00
2023-06-27T05:25:43.366Z,434.00
2023-06-27T05:26:43.209Z,433.00
2023-06-27T05:27:43.265Z,436.00
2023-06-27T05:28:43.285Z,437.00
2023-06-27T05:29:43.281Z,439.00
2023-06-27T05:30:43.349Z,440.00
2023-06-27T05:31:43.398Z,437.00
2023-06-27T05:32:43.509Z,437.00
2023-06-27T05:33:43.412Z,435.00
2023-06-27T05:34:43.444Z,433.00
2023-06-27T05:35:43.646Z,497.00
2023-06-27T05:36:43.979Z,491.00
2023-06-27T05:37:43.985Z,492.00
2023-06-27T05:38:43.551Z,592.00
2023-06-27T05:39:43.595Z,575.00
2023-06-27T05:40:43.689Z,576.00
2023-06-27T05:41:43.716Z,598.00
2023-06-27T05:42:43.988Z,593.00
2023-06-27T05:43:43.772Z,591.00
2023-06-27T05:44:43.788Z,579.00
2023-06-27T05:45:44.004Z,563.00
2023-06-27T05:46:51.528Z,554.00
2023-06-27T05:47:43.868Z,556.00
2023-06-27T05:48:43.855Z,543.00
2023-06-27T05:49:43.898Z,535.00
2023-06-27T05:50:43.873Z,546.00
2023-06-27T05:51:44.055Z,567.00
2023-06-27T05:52:43.901Z,610.00
2023-06-27T05:53:43.892Z,603.00
2023-06-27T05:54:44.514Z,607.00
2023-06-27T05:55:43.900Z,591.00
2023-06-27T05:56:43.883Z,573.00
2023-06-27T05:57:44.018Z,561.00
2023-06-27T05:58:43.859Z,562.00
2023-06-27T05:59:43.875Z,565.00
2023-06-27T06:00:43.897Z,566.00
2023-06-27T06:01:43.941Z,570.00
2023-06-27T06:02:44.172Z,521.00
2023-06-27T06:03:46.059Z,537.00
2023-06-27T06:04:44.072Z,538.00
2023-06-27T06:05:44.093Z,545.00
2023-06-27T06:06:44.176Z,545.00
2023-06-27T06:07:44.156Z,547.00
2023-06-27T06:08:44.174Z,523.00
2023-06-27T06:09:44.317Z,584.00
2023-06-27T06:10:44.322Z,590.00
2023-06-27T06:11:44.323Z,583.00
2023-06-27T06:12:44.380Z,581.00
2023-06-27T06:13:44.394Z,582.00
2023-06-27T06:14:44.564Z,579.00
2023-06-27T06:15:44.528Z,572.00
2023-06-27T06:16:44.692Z,569.00
2023-06-27T06:17:45.092Z,566.00
2023-06-27T06:18:44.727Z,566.00
2023-06-27T06:19:44.788Z,564.00
2023-06-27T06:20:44.803Z,566.00
2023-06-27T06:21:45.043Z,565.00
2023-06-27T06:22:45.021Z,563.00
2023-06-27T06:23:44.928Z,563.00
2023-06-27T06:24:44.981Z,559.00
2023-06-27T06:25:45.144Z,559.00
2023-06-27T06:26:45.170Z,559.00
2023-06-27T06:27:45.124Z,559.00
2023-06-27T06:28:45.161Z,558.00
2023-06-27T06:29:45.207Z,559.00
2023-06-27T06:30:45.251Z,558.00
2023-06-27T06:31:45.321Z,558.00
2023-06-27T06:32:45.365Z,555.00
2023-06-27T06:33:45.480Z,552.00
2023-06-27T06:34:45.466Z,550.00
2023-06-27T06:35:45.475Z,555.00
2023-06-27T06:36:45.521Z,558.00
2023-06-27T06:37:46.081Z,558.00
2023-06-27T06:38:45.678Z,559.00
2023-06-27T06:39:45.678Z,559.00
2023-06-27T06:40:45.762Z,558.00
2023-06-27T06:41:45.782Z,555.00
2023-06-27T06:42:46.037Z,553.00
2023-06-27T06:43:45.905Z,548.00
2023-06-27T06:44:45.853Z,547.00
2023-06-27T06:45:45.950Z,546.00
2023-06-27T06:46:46.052Z,548.00
2023-06-27T06:47:46.113Z,548.00
2023-06-27T06:48:46.015Z,548.00
2023-06-27T06:49:46.059Z,548.00
2023-06-27T06:50:46.096Z,547.00
2023-06-27T06:51:46.136Z,543.00
2023-06-27T06:52:46.188Z,543.00
2023-06-27T06:53:46.203Z,540.00
2023-06-27T06:54:46.207Z,540.00
2023-06-27T06:55:46.265Z,537.00
2023-06-27T06:56:46.315Z,536.00
2023-06-27T06:57:46.353Z,535.00
2023-06-27T06:58:46.526Z,530.00
2023-06-27T06:59:46.396Z,528.00
2023-06-27T07:00:46.441Z,527.00
2023-06-27T07:01:46.543Z,525.00
2023-06-27T07:02:46.594Z,528.00
2023-06-27T07:03:46.571Z,530.00
2023-06-27T07:04:46.601Z,530.00
2023-06-27T07:05:46.648Z,529.00
2023-06-27T07:06:46.719Z,529.00
2023-06-27T07:07:46.662Z,529.00
2023-06-27T07:08:46.708Z,530.00
2023-06-27T07:09:46.707Z,526.00
2023-06-27T07:10:46.752Z,528.00
2023-06-27T07:11:46.802Z,528.00
2023-06-27T07:12:46.829Z,525.00
2023-06-27T07:13:46.881Z,524.00
2023-06-27T07:14:46.890Z,521.00
2023-06-27T07:15:46.913Z,519.00
2023-06-27T07:16:46.934Z,519.00
2023-06-27T07:17:47.031Z,520.00
2023-06-27T07:18:46.998Z,520.00
2023-06-27T07:19:47.054Z,521.00
2023-06-27T07:20:47.103Z,521.00
2023-06-27T07:21:47.133Z,519.00
2023-06-27T07:22:47.144Z,519.00
2023-06-27T07:23:47.596Z,518.00
2023-06-27T07:24:47.187Z,516.00
2023-06-27T07:25:47.234Z,516.00
2023-06-27T07:26:47.262Z,516.00
2023-06-27T07:27:47.332Z,516.00
2023-06-27T07:28:47.576Z,515.00
2023-06-27T07:29:47.370Z,515.00
2023-06-27T07:30:47.479Z,516.00
2023-06-27T07:31:47.411Z,515.00
2023-06-27T07:32:47.470Z,518.00
2023-06-27T07:33:47.600Z,515.00
2023-06-27T07:34:47.470Z,514.00
2023-06-27T07:35:47.515Z,514.00
2023-06-27T07:36:47.518Z,514.00
2023-06-27T07:37:47.516Z,514.00
2023-06-27T07:38:47.595Z,517.00
2023-06-27T07:39:47.533Z,517.00
2023-06-27T07:40:47.574Z,515.00
2023-06-27T07:41:47.534Z,514.00
2023-06-27T07:42:47.589Z,511.00
2023-06-27T07:43:48.090Z,509.00
2023-06-27T07:44:47.606Z,506.00
2023-06-27T07:45:47.634Z,502.00
2023-06-27T07:46:47.611Z,502.00
2023-06-27T07:47:47.671Z,503.00
2023-06-27T07:48:48.132Z,504.00
2023-06-27T07:49:47.687Z,504.00
2023-06-27T07:50:47.674Z,504.00
2023-06-27T07:51:47.690Z,502.00
2023-06-27T07:52:47.709Z,505.00
2023-06-27T07:53:48.096Z,503.00
2023-06-27T07:54:47.740Z,503.00
2023-06-27T07:55:48.680Z,504.00
2023-06-27T07:56:47.759Z,504.00
2023-06-27T07:57:47.694Z,506.00
2023-06-27T07:58:48.068Z,506.00
2023-06-27T07:59:47.651Z,504.00
2023-06-27T08:00:47.600Z,501.00
2023-06-27T08:01:47.647Z,498.00
2023-06-27T08:02:47.645Z,497.00
2023-06-27T08:03:47.699Z,497.00
2023-06-27T08:04:47.619Z,496.00
2023-06-27T08:05:47.594Z,498.00
2023-06-27T08:06:47.587Z,498.00
2023-06-27T08:07:47.599Z,497.00
2023-06-27T08:08:47.583Z,497.00
2023-06-27T08:09:47.540Z,497.00
2023-06-27T08:10:47.555Z,495.00
2023-06-27T08:11:47.508Z,494.00
2023-06-27T08:13:42.091Z,498.00
2023-06-27T08:14:41.949Z,494.00
2023-06-27T08:15:41.949Z,499.00
2023-06-27T08:16:41.935Z,500.00
2023-06-27T08:17:42.011Z,499.00
2023-06-27T08:18:41.938Z,499.00
2023-06-27T08:19:41.965Z,498.00
2023-06-27T08:20:42.272Z,495.00
2023-06-27T08:21:41.972Z,495.00
2023-06-27T08:22:41.988Z,495.00
2023-06-27T08:23:42.813Z,493.00
2023-06-27T08:24:41.961Z,491.00
2023-06-27T08:25:42.287Z,488.00
2023-06-27T08:26:41.963Z,489.00
2023-06-27T08:27:42.037Z,489.00
2023-06-27T08:28:41.992Z,485.00
2023-06-27T08:29:41.992Z,487.00
2023-06-27T08:30:42.180Z,489.00
2023-06-27T08:31:41.974Z,490.00
2023-06-27T08:32:42.004Z,495.00
2023-06-27T08:33:41.996Z,490.00
2023-06-27T08:34:42.113Z,483.00
2023-06-27T08:35:41.980Z,484.00
2023-06-27T08:36:41.967Z,486.00
2023-06-27T08:37:41.978Z,486.00
2023-06-27T08:38:41.978Z,483.00
2023-06-27T08:39:42.659Z,485.00
2023-06-27T08:40:42.898Z,479.00
2023-06-27T08:41:41.961Z,482.00
2023-06-27T08:42:41.987Z,486.00
2023-06-27T08:43:41.952Z,487.00
2023-06-27T08:44:41.944Z,488.00
2023-06-27T08:45:41.963Z,486.00
2023-06-27T08:46:41.960Z,486.00
2023-06-27T08:47:42.010Z,487.00
2023-06-27T08:48:41.946Z,486.00
2023-06-27T08:49:42.798Z,486.00
2023-06-27T08:50:42.232Z,485.00
2023-06-27T08:51:42.112Z,483.00
2023-06-27T08:52:42.009Z,485.00
2023-06-27T08:53:42.001Z,485.00
2023-06-27T08:54:42.249Z,485.00
2023-06-27T08:55:42.048Z,487.00
2023-06-27T08:56:42.056Z,488.00
2023-06-27T08:57:42.112Z,490.00
2023-06-27T08:58:42.133Z,489.00
2023-06-27T08:59:43.946Z,487.00
2023-06-27T09:00:42.382Z,485.00
2023-06-27T09:01:42.302Z,481.00
2023-06-27T09:02:42.528Z,480.00
2023-06-27T09:03:42.414Z,480.00
2023-06-27T09:04:42.518Z,482.00
2023-06-27T09:05:42.421Z,481.00
2023-06-27T09:06:42.497Z,480.00
2023-06-27T09:07:42.503Z,481.00
2023-06-27T09:08:42.570Z,483.00
2023-06-27T09:09:42.666Z,485.00
2023-06-27T09:10:42.833Z,483.00
2023-06-27T09:11:42.679Z,481.00
2023-06-27T09:12:42.644Z,481.00
2023-06-27T09:13:42.679Z,483.00
2023-06-27T09:14:42.762Z,484.00
2023-06-27T09:15:43.910Z,483.00
2023-06-27T09:16:42.880Z,482.00
2023-06-27T09:17:42.795Z,484.00
2023-06-27T09:18:42.799Z,483.00
2023-06-27T09:19:42.828Z,480.00
2023-06-27T09:20:43.069Z,479.00
2023-06-27T09:21:42.861Z,479.00
2023-06-27T09:22:44.095Z,475.00
2023-06-27T09:23:43.627Z,471.00
2023-06-27T09:24:43.151Z,473.00
2023-06-27T09:25:43.144Z,472.00
2023-06-27T09:26:43.202Z,472.00
2023-06-27T09:27:43.188Z,472.00
2023-06-27T09:28:43.221Z,474.00
2023-06-27T09:29:43.270Z,473.00
2023-06-27T09:30:43.400Z,474.00
2023-06-27T09:31:43.467Z,475.00
2023-06-27T09:32:43.489Z,477.00
2023-06-27T09:33:45.777Z,477.00
2023-06-27T09:34:43.652Z,476.00
2023-06-27T09:36:00.325Z,472.00
2023-06-27T09:38:46.635Z,472.00
2023-06-27T09:39:44.684Z,473.00
2023-06-27T09:40:43.473Z,471.00
2023-06-27T09:41:43.447Z,472.00
2023-06-27T09:42:43.480Z,475.00
2023-06-27T09:43:43.459Z,476.00
2023-06-27T09:44:43.695Z,477.00
2023-06-27T09:45:43.609Z,478.00
2023-06-27T09:46:43.486Z,479.00
2023-06-27T09:47:45.046Z,477.00
2023-06-27T09:48:44.157Z,476.00
2023-06-27T09:49:45.107Z,473.00
2023-06-27T09:50:44.175Z,475.00
2023-06-27T09:51:43.659Z,473.00
2023-06-27T09:52:43.680Z,474.00
2023-06-27T09:53:43.809Z,474.00
2023-06-27T09:54:44.173Z,476.00
2023-06-27T09:55:43.972Z,476.00
2023-06-27T09:56:43.888Z,475.00
2023-06-27T09:57:43.980Z,474.00
2023-06-27T09:58:44.024Z,476.00
2023-06-27T09:59:44.686Z,480.00
2023-06-27T10:00:44.096Z,481.00
2023-06-27T10:01:45.139Z,480.00
2023-06-27T10:02:44.245Z,478.00
2023-06-27T10:03:44.259Z,481.00
2023-06-27T10:04:44.648Z,482.00
2023-06-27T10:05:54.407Z,483.00
2023-06-27T10:06:45.516Z,480.00
2023-06-27T10:07:44.335Z,479.00
2023-06-27T10:08:44.368Z,476.00
2023-06-27T10:09:44.367Z,477.00
2023-06-27T10:10:44.649Z,476.00
2023-06-27T10:11:44.322Z,478.00
2023-06-27T10:12:44.324Z,479.00
2023-06-27T10:13:44.314Z,479.00
2023-06-27T10:14:44.326Z,479.00
2023-06-27T10:15:44.692Z,480.00
2023-06-27T10:16:44.466Z,482.00
2023-06-27T10:17:44.569Z,483.00
2023-06-27T10:18:52.061Z,482.00
2023-06-27T10:19:44.583Z,481.00
2023-06-27T10:20:44.579Z,482.00
2023-06-27T10:21:44.566Z,483.00
2023-06-27T10:22:44.611Z,480.00
2023-06-27T10:23:44.604Z,482.00
2023-06-27T10:24:44.671Z,480.00
2023-06-27T10:25:44.893Z,476.00
2023-06-27T10:26:44.683Z,473.00
2023-06-27T10:27:44.576Z,470.00
2023-06-27T10:28:44.585Z,468.00
2023-06-27T10:29:44.587Z,469.00
2023-06-27T10:30:44.629Z,467.00
2023-06-27T10:31:44.604Z,467.00
2023-06-27T10:32:44.636Z,467.00
2023-06-27T10:33:44.608Z,467.00
2023-06-27T10:34:44.539Z,469.00
2023-06-27T10:35:44.672Z,469.00
2023-06-27T10:36:44.563Z,472.00
2023-06-27T10:37:44.578Z,473.00
2023-06-27T10:38:44.582Z,475.00
2023-06-27T10:39:44.724Z,475.00
2023-06-27T10:40:45.174Z,476.00
2023-06-27T10:41:44.772Z,475.00
2023-06-27T10:42:44.844Z,475.00
2023-06-27T10:43:44.874Z,475.00
2023-06-27T10:44:44.922Z,475.00
2023-06-27T10:45:45.186Z,475.00
2023-06-27T10:46:45.056Z,474.00
2023-06-27T10:47:45.215Z,471.00
2023-06-27T10:48:47.344Z,471.00
2023-06-27T10:49:45.201Z,473.00
2023-06-27T10:50:45.454Z,552.00
2023-06-27T10:51:45.318Z,536.00
2023-06-27T10:52:45.372Z,535.00
2023-06-27T10:53:45.392Z,532.00
2023-06-27T10:54:45.489Z,531.00
2023-06-27T10:55:45.521Z,519.00
2023-06-27T10:56:45.608Z,514.00
2023-06-27T10:57:45.674Z,513.00
2023-06-27T10:58:45.768Z,509.00
2023-06-27T10:59:45.685Z,505.00
2023-06-27T11:00:46.985Z,500.00
2023-06-27T11:01:45.799Z,496.00
2023-06-27T11:02:45.957Z,493.00
2023-06-27T11:03:46.019Z,489.00
2023-06-27T11:04:46.015Z,483.00
2023-06-27T11:05:46.016Z,480.00
2023-06-27T11:06:46.097Z,482.00
2023-06-27T11:07:46.098Z,483.00
2023-06-27T11:08:46.187Z,486.00
2023-06-27T11:09:46.237Z,489.00
2023-06-27T11:10:46.667Z,487.00
2023-06-27T11:11:46.311Z,486.00
2023-06-27T11:12:46.418Z,484.00
2023-06-27T11:13:46.447Z,485.00
2023-06-27T11:14:46.556Z,488.00
2023-06-27T11:15:46.548Z,487.00
2023-06-27T11:16:46.705Z,489.00
2023-06-27T11:17:46.714Z,491.00
2023-06-27T11:18:46.700Z,491.00
2023-06-27T11:19:46.775Z,491.00
2023-06-27T11:20:47.213Z,490.00
2023-06-27T11:21:46.861Z,488.00
2023-06-27T11:22:46.929Z,487.00
2023-06-27T11:23:46.985Z,485.00
2023-06-27T11:24:47.028Z,483.00
2023-06-27T11:25:47.148Z,482.00
2023-06-27T11:26:47.131Z,483.00
2023-06-27T11:27:47.174Z,484.00
2023-06-27T11:28:47.281Z,483.00
2023-06-27T11:29:47.376Z,482.00
2023-06-27T11:30:48.232Z,483.00
2023-06-27T11:31:47.441Z,485.00
2023-06-27T11:32:47.512Z,482.00
2023-06-27T11:33:47.488Z,481.00
2023-06-27T11:34:47.550Z,484.00
2023-06-27T11:35:47.732Z,485.00
2023-06-27T11:36:47.684Z,485.00
2023-06-27T11:37:47.728Z,491.00
2023-06-27T11:38:47.781Z,492.00
2023-06-27T11:39:47.875Z,491.00
2023-06-27T11:40:47.956Z,489.00
2023-06-27T11:41:47.963Z,487.00
2023-06-27T11:42:47.996Z,486.00
2023-06-27T11:43:48.028Z,486.00
2023-06-27T11:44:48.093Z,486.00
2023-06-27T11:45:48.191Z,485.00
2023-06-27T11:46:48.156Z,487.00
2023-06-27T11:47:48.245Z,484.00
2023-06-27T11:48:48.291Z,485.00
2023-06-27T11:49:48.306Z,484.00
2023-06-27T11:50:48.372Z,484.00
2023-06-27T11:51:48.441Z,484.00
2023-06-27T11:52:48.472Z,483.00
2023-06-27T11:53:48.512Z,482.00
2023-06-27T11:54:48.550Z,481.00
2023-06-27T11:55:51.885Z,484.00
2023-06-27T11:56:49.647Z,486.00
2023-06-27T11:57:48.629Z,485.00
2023-06-27T11:58:48.601Z,487.00
2023-06-27T11:59:48.561Z,488.00
2023-06-27T12:00:48.576Z,485.00
2023-06-27T12:01:48.615Z,481.00
2023-06-27T12:02:48.585Z,480.00
2023-06-27T12:03:48.624Z,479.00
2023-06-27T12:04:48.588Z,481.00
2023-06-27T12:05:48.585Z,481.00
2023-06-27T12:06:48.611Z,480.00
2023-06-27T12:07:48.654Z,480.00
2023-06-27T12:08:48.769Z,480.00
2023-06-27T12:09:48.743Z,481.00
2023-06-27T12:10:48.771Z,479.00
2023-06-27T12:11:48.873Z,477.00
2023-06-27T12:12:48.988Z,478.00
2023-06-27T12:13:48.959Z,477.00
2023-06-27T12:14:48.969Z,477.00
2023-06-27T12:15:49.010Z,475.00
2023-06-27T12:16:49.078Z,475.00
2023-06-27T12:17:49.118Z,478.00
2023-06-27T12:18:49.168Z,480.00
2023-06-27T12:19:49.242Z,482.00
2023-06-27T12:20:49.246Z,483.00
2023-06-27T12:21:49.345Z,482.00
2023-06-27T12:22:49.378Z,480.00
2023-06-27T12:23:49.459Z,478.00
2023-06-27T12:24:49.486Z,477.00
2023-06-27T12:25:49.535Z,477.00
2023-06-27T12:26:49.600Z,478.00
2023-06-27T12:27:49.623Z,479.00
2023-06-27T12:28:49.672Z,479.00
2023-06-27T12:29:49.719Z,479.00
2023-06-27T12:30:49.796Z,480.00
2023-06-27T12:31:49.836Z,480.00